Time;durP1;ratioP1;P1;durP2;ratioP2;P2;SDS_P1;SDS_P2;PMS_P1;PMS_P2;Temp;Humidity;BMP_temperature;BMP_pressure;BME280_temperature;BME280_humidity;BME280_pressure;Samples;Min_cycle;Max_cycle;Signal;HPM_P1;HPM_P2
2022/05/26 00:01:44;;;;;;;;;4.50;4.50;;;;;16.45;86.25;99725.91;6290822;20;2741926;-51
2022/05/26 00:04:12;;;;;;;;;3.00;3.00;;;;;16.48;86.11;99730.22;6285328;20;2751533;-56
2022/05/26 00:06:40;;;;;;;;;3.00;3.00;;;;;16.38;85.77;99736.44;6289183;20;2731520;-54
2022/05/26 00:09:08;;;;;;;;;3.00;3.00;;;;;16.30;86.10;99733.50;6286712;20;2729451;-55
2022/05/26 00:11:38;;;;;;;;;4.00;4.00;;;;;16.37;86.47;99739.25;6284916;20;2752328;-53
2022/05/26 00:14:11;;;;;;;;;4.00;4.00;;;;;16.24;85.29;99744.84;6288843;20;2738915;-51
2022/05/26 00:16:44;;;;;;;;;5.00;4.00;;;;;16.18;85.82;99740.81;6282057;20;2752328;-55
2022/05/26 00:19:16;;;;;;;;;4.00;4.00;;;;;16.19;85.93;99747.09;6286697;20;2749255;-55
2022/05/26 00:21:47;;;;;;;;;3.50;3.50;;;;;16.25;85.41;99741.16;6287222;20;2744024;-55
2022/05/26 00:24:18;;;;;;;;;3.00;3.00;;;;;16.06;85.75;99751.81;6285296;20;2749232;-52
2022/05/26 00:26:46;;;;;;;;;4.00;4.00;;;;;16.11;85.87;99749.56;6284991;20;2742044;-55
2022/05/26 00:29:14;;;;;;;;;3.50;3.50;;;;;16.02;86.46;99754.78;6287774;20;2748643;-56
2022/05/26 00:31:43;;;;;;;;;4.00;4.00;;;;;16.10;86.30;99764.13;6280862;20;2743129;-52
2022/05/26 00:34:11;;;;;;;;;3.00;3.00;;;;;15.95;87.19;99767.09;6283579;20;2744145;-52
2022/05/26 00:36:40;;;;;;;;;3.00;3.00;;;;;15.90;87.44;99769.31;6287375;20;2746081;-53
2022/05/26 00:39:22;;;;;;;;;3.00;3.00;;;;;15.76;88.00;99766.91;6289247;20;2756595;-56
2022/05/26 00:42:01;;;;;;;;;4.00;4.00;;;;;15.72;88.76;99762.75;6287234;20;2754409;-54
2022/05/26 00:44:30;;;;;;;;;3.00;3.00;;;;;15.57;89.15;99771.06;6286490;20;2748196;-54
2022/05/26 00:47:11;;;;;;;;;3.00;3.00;;;;;15.54;88.82;99765.06;6285270;20;2745230;-52
2022/05/26 00:49:55;;;;;;;;;5.00;5.00;;;;;15.48;89.51;99769.13;6282682;20;2749213;-56
2022/05/26 00:53:04;;;;;;;;;4.00;4.00;;;;;15.44;89.88;99772.19;6287494;20;2754448;-60
2022/05/26 00:55:57;;;;;;;;;6.00;5.00;;;;;15.38;89.97;99784.38;6285155;20;2736898;-59
2022/05/26 00:58:36;;;;;;;;;5.50;5.50;;;;;15.14;90.72;99790.75;6284746;20;2739874;-58
2022/05/26 01:01:11;;;;;;;;;4.50;4.50;;;;;15.26;91.12;99785.34;6279296;20;2752321;-59
2022/05/26 01:04:00;;;;;;;;;4.50;4.50;;;;;15.25;90.84;99791.75;6287388;20;2743993;-59
2022/05/26 01:06:46;;;;;;;;;4.50;4.50;;;;;15.30;89.70;99803.94;6282078;20;2748206;-58
2022/05/26 01:09:14;;;;;;;;;4.00;4.00;;;;;15.26;90.13;99802.44;6282418;20;2733652;-59
2022/05/26 01:11:44;;;;;;;;;5.00;4.00;;;;;15.31;89.68;99797.53;6286563;20;2747168;-60
2022/05/26 01:14:32;;;;;;;;;6.00;6.00;;;;;15.26;89.50;99801.56;6282879;20;2747316;-62
2022/05/26 01:17:25;;;;;;;;;5.00;5.00;;;;;15.15;89.58;99803.28;6280349;20;2735783;-61
2022/05/26 01:20:38;;;;;;;;;5.00;4.00;;;;;15.04;89.97;99797.00;6282529;20;2748265;-60
2022/05/26 01:23:40;;;;;;;;;5.00;5.00;;;;;14.99;89.51;99802.78;6282592;20;2747202;-52
2022/05/26 01:26:28;;;;;;;;;4.00;4.00;;;;;15.02;87.31;99804.38;6286331;20;2744017;-53
2022/05/26 01:29:51;;;;;;;;;3.00;3.00;;;;;14.86;87.88;99805.56;6284512;20;2745072;-55
2022/05/26 01:32:41;;;;;;;;;4.00;4.00;;;;;14.98;87.06;99798.34;6281761;20;2745077;-56
2022/05/26 01:35:36;;;;;;;;;5.00;5.00;;;;;14.91;86.24;99789.00;6285211;20;2747201;-54
2022/05/26 01:38:43;;;;;;;;;4.00;4.00;;;;;14.83;86.39;99797.69;6281612;20;2746134;-56
2022/05/26 01:41:19;;;;;;;;;3.50;3.50;;;;;14.95;85.47;99798.56;6278623;20;2755492;-60
2022/05/26 01:44:15;;;;;;;;;4.00;3.00;;;;;14.99;84.29;99789.25;6288292;20;2738788;-59
2022/05/26 01:46:45;;;;;;;;;2.50;2.50;;;;;14.90;82.94;99798.94;6280841;20;2732730;-57
2022/05/26 01:49:41;;;;;;;;;3.00;3.00;;;;;14.89;83.34;99799.06;6285414;20;2740917;-58
2022/05/26 01:52:17;;;;;;;;;5.00;3.00;;;;;14.85;83.32;99802.97;6298855;20;1803513;-59
2022/05/26 01:55:06;;;;;;;;;3.00;3.00;;;;;14.88;82.47;99808.16;6313736;20;2731534;-62
2022/05/26 01:57:56;;;;;;;;;0.50;0.50;;;;;14.69;82.94;99809.59;6285875;20;2729443;-58
2022/05/26 02:00:24;;;;;;;;;3.00;3.00;;;;;14.52;83.88;99807.25;6279695;20;2738831;-59
2022/05/26 02:03:15;;;;;;;;;4.50;3.00;;;;;14.68;83.30;99818.66;6282096;20;2753496;-58
2022/05/26 02:05:55;;;;;;;;;3.75;3.75;;;;;14.69;83.64;99820.38;6298327;20;1794100;-59
2022/05/26 02:08:34;;;;;;;;;4.00;4.00;;;;;14.57;83.12;99818.63;6313183;20;2754486;-59
2022/05/26 02:11:19;;;;;;;;;3.00;2.00;;;;;14.60;83.18;99829.19;6284559;20;2742721;-59
2022/05/26 02:13:55;;;;;;;;;3.00;3.00;;;;;14.59;83.39;99835.59;6285165;20;2727055;-59
2022/05/26 02:16:57;;;;;;;;;2.00;2.00;;;;;14.69;82.78;99836.59;6284652;20;2749357;-59
2022/05/26 02:20:03;;;;;;;;;6.00;3.00;;;;;14.60;82.27;99837.28;6285879;20;2747149;-63
2022/05/26 02:23:06;;;;;;;;;3.50;3.00;;;;;14.53;82.86;99846.81;6285842;20;2742019;-62
2022/05/26 02:25:34;;;;;;;;;3.00;3.00;;;;;14.50;83.85;99849.72;6285980;20;2737811;-61
2022/05/26 02:28:04;;;;;;;;;3.00;3.00;;;;;14.55;83.53;99861.09;6287660;20;2739948;-62
2022/05/26 02:30:38;;;;;;;;;2.50;2.50;;;;;14.24;84.91;99865.19;6288671;20;2734636;-61
2022/05/26 02:33:14;;;;;;;;;4.00;4.00;;;;;14.13;85.91;99875.94;6288702;20;2638874;-62
2022/05/26 02:35:50;;;;;;;;;3.00;3.00;;;;;13.78;87.27;99876.66;6284846;20;2749240;-53
2022/05/26 02:38:26;;;;;;;;;4.00;4.00;;;;;13.72;88.13;99883.34;6285335;20;2752455;-59
2022/05/26 02:40:54;;;;;;;;;4.00;4.00;;;;;13.79;88.27;99884.63;6286835;20;2751378;-57
2022/05/26 02:43:29;;;;;;;;;4.00;4.00;;;;;13.60;88.31;99881.53;6288142;20;2750320;-58
2022/05/26 02:46:18;;;;;;;;;3.50;3.50;;;;;13.63;89.14;99884.00;6284642;20;2751306;-59
2022/05/26 02:49:33;;;;;;;;;5.00;5.00;;;;;13.65;88.29;99886.59;6288661;20;2748181;-59
2022/05/26 02:52:48;;;;;;;;;3.00;3.00;;;;;13.49;89.81;99892.22;6287334;20;2740960;-54
2022/05/26 02:55:27;;;;;;;;;3.50;3.50;;;;;13.09;91.60;99905.75;6285118;20;2749374;-55
2022/05/26 02:58:37;;;;;;;;;3.50;3.50;;;;;13.39;90.60;99913.56;6287349;20;2756594;-52
2022/05/26 03:01:12;;;;;;;;;4.00;4.00;;;;;13.24;90.48;99909.19;6284962;20;2749254;-57
2022/05/26 03:04:07;;;;;;;;;6.00;5.00;;;;;13.09;92.21;99922.78;6289271;20;2745053;-52
2022/05/26 03:06:54;;;;;;;;;3.00;3.00;;;;;13.54;87.95;99922.44;6285574;20;2744178;-55
2022/05/26 03:09:22;;;;;;;;;2.00;2.00;;;;;13.82;84.84;99927.59;6285479;20;2743997;-59
2022/05/26 03:11:57;;;;;;;;;3.50;3.50;;;;;14.07;82.44;99920.44;6288412;20;2750282;-60
2022/05/26 03:14:26;;;;;;;;;4.00;3.00;;;;;14.23;81.29;99921.03;6287869;20;2748378;-59
2022/05/26 03:16:54;;;;;;;;;2.00;2.00;;;;;14.11;81.03;99921.94;6287748;20;2746201;-60
2022/05/26 03:19:22;;;;;;;;;3.00;3.00;;;;;14.02;82.57;99919.91;6287838;20;2728533;-60
2022/05/26 03:21:50;;;;;;;;;4.00;2.00;;;;;13.83;84.03;99931.16;6285977;20;2734660;-60
2022/05/26 03:24:18;;;;;;;;;4.00;4.00;;;;;13.89;84.37;99936.13;6286278;20;2751280;-61
2022/05/26 03:26:45;;;;;;;;;4.50;4.50;;;;;13.53;87.12;99937.75;6287975;20;2752366;-59
2022/05/26 03:29:13;;;;;;;;;4.00;4.00;;;;;13.90;85.03;99939.66;6287551;20;2753519;-60
2022/05/26 03:31:41;;;;;;;;;4.00;4.00;;;;;13.78;86.08;99936.88;6284320;20;2754400;-62
2022/05/26 03:42:30;;;;;;;;;1.50;1.50;;;;;13.57;88.11;99958.13;6282247;20;2743020;-58
2022/05/26 03:44:59;;;;;;;;;4.50;4.50;;;;;13.57;88.83;99965.38;6286918;20;2747286;-60
2022/05/26 03:47:26;;;;;;;;;4.00;4.00;;;;;13.84;86.18;99955.31;6283334;20;2754418;-62
2022/05/26 03:49:54;;;;;;;;;3.00;3.00;;;;;13.92;84.93;99959.31;6278019;20;2753981;-60
2022/05/26 03:52:22;;;;;;;;;5.00;4.00;;;;;14.13;84.82;99965.88;6283583;20;2750247;-60
2022/05/26 03:54:50;;;;;;;;;3.00;3.00;;;;;14.18;84.79;99961.03;6283723;20;2745089;-59
2022/05/26 03:57:28;;;;;;;;;2.50;2.50;;;;;13.93;85.06;99966.44;6304279;20;1802453;-60
2022/05/26 03:59:56;;;;;;;;;4.00;3.00;;;;;14.12;84.62;99961.47;6318258;20;2736916;-60
2022/05/26 04:02:25;;;;;;;;;4.50;3.00;;;;;14.31;82.52;99973.66;6288245;20;2744052;-60
2022/05/26 04:04:53;;;;;;;;;3.00;3.00;;;;;14.41;82.48;99977.41;6289447;20;2748233;-60
2022/05/26 04:07:21;;;;;;;;;3.00;3.00;;;;;14.48;82.50;99973.25;6288873;20;2735045;-59
2022/05/26 04:09:49;;;;;;;;;5.00;4.50;;;;;14.70;81.49;99978.84;6286371;20;2752450;-60
2022/05/26 04:12:18;;;;;;;;;3.00;3.00;;;;;14.67;81.74;99987.19;6285431;20;2740882;-60
2022/05/26 04:14:45;;;;;;;;;4.00;4.00;;;;;14.48;83.25;99986.78;6286912;20;2755495;-60
2022/05/26 04:17:13;;;;;;;;;3.00;3.00;;;;;14.60;81.85;99988.63;6290466;20;2748253;-59
2022/05/26 04:19:41;;;;;;;;;2.00;2.00;;;;;14.69;81.47;99993.38;6286997;20;2748245;-60
2022/05/26 04:22:16;;;;;;;;;3.00;3.00;;;;;14.96;80.69;99995.00;6288481;20;2746079;-59
2022/05/26 04:24:50;;;;;;;;;4.50;3.00;;;;;14.57;83.05;99986.16;6285295;20;2744029;-60
2022/05/26 04:27:23;;;;;;;;;3.00;3.00;;;;;14.87;81.77;99992.97;6286523;20;2746497;-59
2022/05/26 04:29:52;;;;;;;;;4.00;4.00;;;;;14.84;82.19;99991.34;6285703;20;2751503;-60
2022/05/26 04:32:22;;;;;;;;;4.00;3.00;;;;;14.86;82.42;99996.66;6283220;20;2741946;-60
2022/05/26 04:34:51;;;;;;;;;3.00;3.00;;;;;15.01;80.85;99998.22;6279457;20;2748173;-60
2022/05/26 04:37:22;;;;;;;;;3.00;3.00;;;;;15.25;79.68;100008.16;6282012;20;2742967;-61
2022/05/26 04:39:58;;;;;;;;;7.00;4.50;;;;;15.21;82.21;100014.75;6284845;20;2745158;-61
2022/05/26 04:42:29;;;;;;;;;3.00;3.00;;;;;15.28;79.79;100010.63;6285049;20;2743126;-60
2022/05/26 04:44:58;;;;;;;;;3.00;3.00;;;;;15.37;79.38;100004.50;6287710;20;2753570;-60
2022/05/26 04:47:26;;;;;;;;;3.00;3.00;;;;;15.27;80.14;100014.28;6285444;20;2744172;-60
2022/05/26 04:49:54;;;;;;;;;3.50;3.50;;;;;15.74;78.22;100026.06;6286003;20;2741955;-60
2022/05/26 04:52:25;;;;;;;;;3.00;3.00;;;;;15.79;77.77;100023.84;6283805;20;2750296;-60
2022/05/26 04:54:53;;;;;;;;;3.00;3.00;;;;;15.82;76.29;100031.72;6287677;20;2737744;-61
2022/05/26 04:57:24;;;;;;;;;3.00;3.00;;;;;16.10;75.36;100029.59;6287536;20;2735793;-60
2022/05/26 04:59:52;;;;;;;;;3.00;3.00;;;;;16.03;75.35;100040.03;6286905;20;2739938;-60
2022/05/26 05:02:23;;;;;;;;;3.00;3.00;;;;;16.23;75.25;100033.03;6288386;20;2750337;-60
2022/05/26 05:04:51;;;;;;;;;3.00;3.00;;;;;16.43;75.22;100045.88;6292017;20;2744072;-62
2022/05/26 05:07:19;;;;;;;;;3.00;3.00;;;;;16.50;74.04;100050.78;6290324;20;2746090;-60
2022/05/26 05:09:48;;;;;;;;;2.00;2.00;;;;;16.86;74.05;100053.25;6286341;20;2744019;-59
2022/05/26 05:12:21;;;;;;;;;3.50;3.50;;;;;17.06;71.91;100061.59;6291883;20;2746114;-59
2022/05/26 05:14:52;;;;;;;;;3.00;3.00;;;;;17.22;71.31;100059.34;6289085;20;2742946;-60
2022/05/26 05:17:23;;;;;;;;;2.00;2.00;;;;;17.38;71.29;100061.63;6291148;20;2744114;-60
2022/05/26 05:19:51;;;;;;;;;3.00;3.00;;;;;17.65;70.49;100063.00;6289934;20;2733747;-60
2022/05/26 05:22:48;;;;;;;;;3.00;3.00;;;;;17.88;69.41;100058.38;6291583;20;2741919;-59
2022/05/26 05:25:26;;;;;;;;;2.50;2.50;;;;;18.04;68.23;100061.47;6292184;20;2743004;-60
2022/05/26 05:28:21;;;;;;;;;3.00;3.00;;;;;18.25;67.41;100069.59;6289522;20;2734744;-59
2022/05/26 05:31:10;;;;;;;;;2.00;2.00;;;;;18.25;66.20;100076.91;6285377;20;2752803;-60
2022/05/26 05:34:13;;;;;;;;;4.50;3.00;;;;;18.23;66.41;100076.19;6289779;20;2740933;-60
2022/05/26 05:36:41;;;;;;;;;2.00;2.00;;;;;18.51;65.89;100071.88;6289830;20;2750245;-59
2022/05/26 05:39:09;;;;;;;;;2.50;2.50;;;;;18.80;65.31;100093.78;6288309;20;2735664;-60
2022/05/26 05:41:38;;;;;;;;;2.00;2.00;;;;;18.89;66.96;100087.53;6291975;20;2744039;-60
2022/05/26 05:44:06;;;;;;;;;2.00;2.00;;;;;18.79;65.20;100092.94;6318393;20;2744069;-60
2022/05/26 05:46:34;;;;;;;;;2.00;2.00;;;;;19.03;64.04;100087.13;6290960;20;2731540;-59
2022/05/26 05:49:04;;;;;;;;;3.67;2.00;;;;;19.38;63.00;100093.97;6291394;20;2746079;-59
2022/05/26 05:51:35;;;;;;;;;2.00;2.00;;;;;19.52;61.39;100093.53;6321076;20;2737751;-59
2022/05/26 05:54:04;;;;;;;;;1.00;1.00;;;;;19.40;61.74;100094.66;6320737;20;2730510;-60
2022/05/26 05:56:32;;;;;;;;;1.67;1.67;;;;;19.67;60.77;100098.63;6317387;20;2734660;-56
2022/05/26 05:59:01;;;;;;;;;3.00;2.00;;;;;19.33;60.55;100101.69;6321117;20;2744034;-59
2022/05/26 06:01:29;;;;;;;;;3.00;1.00;;;;;19.48;61.76;100099.41;6321285;20;2732557;-59
2022/05/26 06:03:58;;;;;;;;;3.00;3.00;;;;;19.87;61.29;100102.19;6319943;20;2730562;-59
2022/05/26 06:06:26;;;;;;;;;2.00;2.00;;;;;19.92;61.01;100102.59;6319811;20;2744056;-59
2022/05/26 06:08:55;;;;;;;;;3.00;3.00;;;;;20.55;61.03;100110.28;6320315;20;2725329;-59
2022/05/26 06:11:23;;;;;;;;;2.00;2.00;;;;;20.33;60.04;100111.47;6320626;20;2741931;-59
2022/05/26 06:13:51;;;;;;;;;2.67;2.00;;;;;20.98;58.80;100112.41;6321453;20;2720047;-60
2022/05/26 06:16:20;;;;;;;;;2.00;2.00;;;;;20.78;59.59;100118.97;6320127;20;2744242;-59
2022/05/26 06:18:50;;;;;;;;;2.67;2.67;;;;;21.11;58.69;100124.84;6320268;20;2734623;-59
2022/05/26 06:21:18;;;;;;;;;1.00;1.00;;;;;21.41;56.76;100123.72;6321625;20;2730460;-60
2022/05/26 06:23:48;;;;;;;;;3.00;3.00;;;;;21.38;56.56;100130.34;6342273;20;2735659;-59
2022/05/26 06:26:17;;;;;;;;;2.00;2.00;;;;;21.51;57.32;100124.47;6316886;20;2753429;-59
2022/05/26 06:31:33;;;;;;;;;2.67;2.67;;;;;21.88;56.22;100126.22;6314707;20;2752367;-60
2022/05/26 06:39:37;;;;;;;;;2.00;2.00;;;;;22.84;54.43;100131.75;6319328;20;2734648;-57
2022/05/26 06:42:09;;;;;;;;;2.40;2.40;;;;;22.45;54.63;100129.47;6341615;20;2745077;-59
2022/05/26 06:44:45;;;;;;;;;3.80;2.00;;;;;22.94;54.97;100140.72;6341480;20;2748230;-59
2022/05/26 06:47:22;;;;;;;;;3.00;3.00;;;;;23.37;51.88;100141.63;6311665;20;2728424;-59
2022/05/26 06:49:51;;;;;;;;;2.80;2.80;;;;;23.57;52.58;100149.56;6338554;20;2752524;-59
2022/05/26 06:52:25;;;;;;;;;2.40;2.40;;;;;23.65;52.42;100149.59;6308146;20;2731490;-59
2022/05/26 06:54:56;;;;;;;;;2.40;2.40;;;;;23.56;52.00;100145.09;6341864;20;2726299;-57
2022/05/26 06:57:26;;;;;;;;;3.00;3.00;;;;;24.07;50.19;100148.66;6344737;20;2744161;-61
2022/05/26 06:59:55;;;;;;;;;2.80;2.80;;;;;23.54;51.31;100147.13;6342978;20;2729551;-60
2022/05/26 07:02:24;;;;;;;;;2.00;2.00;;;;;23.71;52.77;100143.41;6347050;20;2744031;-60
2022/05/26 07:04:54;;;;;;;;;3.20;2.00;;;;;24.36;50.62;100156.38;6348763;20;2739931;-60
2022/05/26 07:07:25;;;;;;;;;2.00;2.00;;;;;24.63;50.17;100151.56;6346707;20;2744013;-59
2022/05/26 07:09:55;;;;;;;;;2.60;2.60;;;;;24.60;50.52;100161.00;6314377;20;2744006;-58
2022/05/26 07:12:25;;;;;;;;;3.20;2.60;;;;;24.55;51.99;100149.69;6346734;20;2730494;-58
2022/05/26 07:14:55;;;;;;;;;2.40;2.40;;;;;24.72;48.26;100159.63;6346216;20;2739848;-57
2022/05/26 07:17:24;;;;;;;;;2.00;2.00;;;;;24.61;51.03;100154.47;6346654;20;2738887;-58
2022/05/26 07:19:54;;;;;;;;;3.40;2.60;;;;;24.66;48.57;100149.31;6347310;20;2728367;-62
2022/05/26 07:22:24;;;;;;;;;2.80;2.80;;;;;24.73;50.90;100155.84;6346917;20;2746162;-63
2022/05/26 07:24:53;;;;;;;;;3.20;3.20;;;;;25.08;49.22;100148.19;6341580;20;2750242;-62
2022/05/26 07:27:23;;;;;;;;;4.60;3.00;;;;;24.93;48.89;100149.94;6313756;20;2744013;-62
2022/05/26 07:29:54;;;;;;;;;3.60;2.80;;;;;24.37;50.15;100154.47;6312541;20;2746188;-63
2022/05/26 07:32:24;;;;;;;;;3.00;3.00;;;;;25.35;49.63;100154.28;6310582;20;2743994;-63
2022/05/26 07:34:54;;;;;;;;;2.00;2.00;;;;;25.01;47.13;100163.66;6314670;20;2740885;-63
2022/05/26 07:43:02;;;;;;;;;3.00;3.00;;;;;25.04;45.84;100177.06;6344934;20;2640874;-62
2022/05/26 07:45:31;;;;;;;;;2.40;2.40;;;;;25.32;45.80;100183.00;6346026;20;2735680;-63
2022/05/26 07:48:01;;;;;;;;;3.00;3.00;;;;;25.04;46.81;100171.56;6347087;20;2731503;-63
2022/05/26 07:50:30;;;;;;;;;2.00;2.00;;;;;25.26;45.92;100180.13;6349213;20;2731498;-62
2022/05/26 07:53:00;;;;;;;;;1.60;1.60;;;;;24.59;46.21;100170.25;6346069;20;2744418;-62
2022/05/26 07:55:32;;;;;;;;;3.00;3.00;;;;;25.13;46.51;100176.00;6314174;20;2736299;-63
2022/05/26 07:58:02;;;;;;;;;3.00;3.00;;;;;25.47;46.66;100169.38;6345538;20;2733582;-64
2022/05/26 08:00:32;;;;;;;;;4.20;2.40;;;;;25.95;44.80;100172.88;6343653;20;2741989;-63
2022/05/26 08:03:01;;;;;;;;;5.00;3.60;;;;;25.58;44.81;100177.19;6345624;20;2753374;-63
2022/05/26 08:05:30;;;;;;;;;2.00;2.00;;;;;25.63;43.46;100180.28;6292456;20;2744078;-63
2022/05/26 08:08:00;;;;;;;;;1.60;1.60;;;;;26.08;43.09;100182.44;6346186;20;2737818;-62
2022/05/26 08:10:29;;;;;;;;;2.80;2.80;;;;;25.71;44.21;100181.28;6343550;20;2736767;-63
2022/05/26 08:12:58;;;;;;;;;3.00;3.00;;;;;26.24;43.64;100183.16;6346415;20;2737786;-62
2022/05/26 08:15:31;;;;;;;;;4.40;3.00;;;;;26.44;41.66;100182.69;6345260;20;2740859;-63
2022/05/26 08:18:00;;;;;;;;;4.00;2.00;;;;;25.95;40.34;100183.03;6313335;20;2746060;-62
2022/05/26 08:20:30;;;;;;;;;1.60;1.60;;;;;26.06;39.34;100180.72;6312617;20;2741300;-63
2022/05/26 08:23:00;;;;;;;;;1.40;1.40;;;;;26.83;39.17;100179.75;6313656;20;2733605;-63
2022/05/26 08:25:29;;;;;;;;;1.40;1.40;;;;;27.02;36.19;100169.22;6345175;20;2741931;-63
2022/05/26 08:27:59;;;;;;;;;1.00;1.00;;;;;26.95;36.29;100187.56;6315394;20;2737806;-61
2022/05/26 08:30:28;;;;;;;;;1.80;1.80;;;;;26.23;36.73;100169.59;6340483;20;2739930;-62
2022/05/26 08:32:58;;;;;;;;;2.00;2.00;;;;;26.73;35.22;100181.91;6312072;20;2741945;-63
2022/05/26 08:35:26;;;;;;;;;2.33;1.00;;;;;26.42;35.06;100173.75;6294070;20;2733625;-64
2022/05/26 08:37:56;;;;;;;;;4.40;2.40;;;;;26.83;36.92;100177.00;6343362;20;2756535;-63
2022/05/26 08:40:40;;;;;;;;;1.20;1.20;;;;;25.98;37.97;100168.91;6311777;20;2741971;-62
2022/05/26 08:43:54;;;;;;;;;2.00;2.00;;;;;25.95;39.02;100181.16;6310065;20;2744019;-62
2022/05/26 08:46:46;;;;;;;;;2.00;2.00;;;;;26.28;37.56;100179.03;6309942;20;2744027;-63
2022/05/26 08:49:23;;;;;;;;;2.00;2.00;;;;;25.52;37.92;100183.44;6310097;20;2744083;-62
2022/05/26 08:52:00;;;;;;;;;2.00;2.00;;;;;26.44;37.32;100183.53;6310891;20;2739815;-61
2022/05/26 08:54:50;;;;;;;;;2.00;2.00;;;;;26.44;37.10;100178.03;6309905;20;2742038;-62
2022/05/26 08:57:31;;;;;;;;;2.00;2.00;;;;;26.63;38.98;100186.84;6341239;20;2744015;-62
2022/05/26 09:00:00;;;;;;;;;1.40;1.40;;;;;26.87;33.89;100194.00;6344155;20;2725243;-62
2022/05/26 09:02:36;;;;;;;;;3.40;1.20;;;;;27.26;31.85;100188.25;6343162;20;2744007;-62
2022/05/26 09:05:13;;;;;;;;;2.80;2.00;;;;;26.00;32.72;100194.38;6310809;20;2738803;-62
2022/05/26 09:14:30;;;;;;;;;1.00;1.00;;;;;26.28;36.82;100190.03;6343479;20;2731500;-62
2022/05/26 09:17:22;;;;;;;;;1.40;1.40;;;;;25.84;35.99;100198.94;6340305;20;2730505;-61
2022/05/26 09:19:55;;;;;;;;;2.40;1.00;;;;;26.58;35.22;100197.56;6342632;20;2724199;-62
2022/05/26 09:22:46;;;;;;;;;1.00;1.00;;;;;26.32;34.64;100198.75;6345142;20;2735707;-61
2022/05/26 09:25:46;;;;;;;;;1.00;1.00;;;;;26.35;34.59;100195.63;6342456;20;2725323;-62
2022/05/26 09:28:29;;;;;;;;;1.00;1.00;;;;;26.03;34.04;100202.25;6339451;20;2740316;-60
2022/05/26 09:31:31;;;;;;;;;1.40;1.40;;;;;25.62;34.46;100203.31;6342102;20;2739842;-62
2022/05/26 09:34:26;;;;;;;;;1.00;1.00;;;;;26.42;35.39;100196.63;6311722;20;2737768;-62
2022/05/26 09:37:10;;;;;;;;;2.00;2.00;;;;;27.08;34.49;100202.38;6318637;20;2746106;-63
2022/05/26 09:39:42;;;;;;;;;1.00;1.00;;;;;25.66;34.90;100201.06;6342438;20;2610682;-65
2022/05/26 09:42:19;;;;;;;;;1.60;1.60;;;;;26.44;35.78;100194.53;6346405;20;2744018;-62
2022/05/26 09:44:59;;;;;;;;;2.00;2.00;;;;;26.60;34.90;100199.09;6343183;20;2744056;-62
2022/05/26 09:47:44;;;;;;;;;1.80;1.40;;;;;25.87;34.34;100196.84;6308751;20;2737748;-62
2022/05/26 09:50:34;;;;;;;;;1.00;1.00;;;;;26.49;34.52;100194.00;6341111;20;2741920;-60
2022/05/26 09:53:10;;;;;;;;;2.00;1.00;;;;;26.92;35.90;100197.91;6311134;20;2729659;-60
2022/05/26 09:55:50;;;;;;;;;1.00;1.00;;;;;26.88;32.99;100196.59;6338491;20;2727377;-61
2022/05/26 09:58:39;;;;;;;;;1.50;1.50;;;;;26.90;33.81;100194.47;6349259;20;2744004;-61
2022/05/26 10:01:40;;;;;;;;;1.67;1.67;;;;;26.67;34.33;100196.44;6286023;20;2737765;-62
2022/05/26 10:04:51;;;;;;;;;2.00;2.00;;;;;27.09;34.48;100189.44;6339620;20;2750284;-61
2022/05/26 10:08:02;;;;;;;;;3.40;2.00;;;;;26.50;33.96;100193.78;6309060;20;2741932;-62
2022/05/26 10:10:59;;;;;;;;;1.40;1.40;;;;;27.33;34.35;100194.72;6308820;20;2744034;-61
2022/05/26 10:14:16;;;;;;;;;1.20;1.20;;;;;26.49;35.80;100188.50;6304692;20;2731530;-61
2022/05/26 10:17:08;;;;;;;;;1.00;1.00;;;;;27.67;33.49;100198.75;6338704;20;2733605;-58
2022/05/26 10:20:26;;;;;;;;;1.40;1.00;;;;;26.67;33.33;100183.53;6343047;20;2724257;-53
2022/05/26 10:23:24;;;;;;;;;1.20;1.20;;;;;27.40;33.14;100189.28;6344180;20;2731488;-59
2022/05/26 10:26:30;;;;;;;;;2.00;2.00;;;;;26.43;33.89;100190.06;6343011;20;2748188;-55
2022/05/26 10:30:20;;;;;;;;;2.00;2.00;;;;;27.36;34.01;100188.81;6310247;20;2735670;-57
2022/05/26 10:33:20;;;;;;;;;5.80;3.00;;;;;27.05;34.24;100179.88;6314354;20;2747149;-58
2022/05/26 10:36:27;;;;;;;;;2.00;2.00;;;;;26.65;35.06;100191.13;6316858;20;2748689;-59
2022/05/26 10:39:15;;;;;;;;;3.00;2.00;;;;;26.78;35.26;100192.34;6313749;20;2744459;-59
2022/05/26 10:41:53;;;;;;;;;2.00;2.00;;;;;27.13;33.80;100191.66;6315769;20;2746277;-55
2022/05/26 10:44:52;;;;;;;;;1.00;1.00;;;;;26.47;34.51;100188.66;6310891;20;2716914;-58
2022/05/26 10:48:02;;;;;;;;;1.20;1.20;;;;;26.67;34.56;100188.16;6346209;20;2739864;-58
2022/05/26 10:51:15;;;;;;;;;1.00;1.00;;;;;27.18;34.81;100180.09;6302800;20;2735695;-59
2022/05/26 10:54:06;;;;;;;;;3.60;2.60;;;;;26.92;34.52;100183.28;6339200;20;2744002;-57
2022/05/26 10:57:03;;;;;;;;;2.00;2.00;;;;;26.09;35.00;100189.66;6311873;20;1908610;-53
2022/05/26 11:00:10;;;;;;;;;1.00;1.00;;;;;27.30;34.57;100180.44;6309641;20;2726277;-58
2022/05/26 11:03:28;;;;;;;;;3.00;1.40;;;;;26.80;34.10;100182.00;6344085;20;2751305;-58
2022/05/26 11:06:07;;;;;;;;;1.80;1.20;;;;;26.54;32.95;100185.19;6312052;20;2741942;-59
2022/05/26 11:08:59;;;;;;;;;1.00;1.00;;;;;27.16;33.15;100182.13;6343903;20;2724283;-54
2022/05/26 11:11:44;;;;;;;;;0.60;0.60;;;;;27.07;33.49;100188.81;6343008;20;2728415;-59
2022/05/26 11:17:48;;;;;;;;;0.80;0.80;;;;;27.87;33.56;100178.88;6311621;20;2727351;-59
2022/05/26 11:20:53;;;;;;;;;1.00;1.00;;;;;27.31;33.53;100183.03;6343959;20;2731647;-58
2022/05/26 11:23:27;;;;;;;;;2.40;2.00;;;;;26.47;33.90;100172.13;6342864;20;2741911;-59
2022/05/26 11:26:07;;;;;;;;;2.00;2.00;;;;;27.34;33.07;100187.31;6312837;20;2744073;-58
2022/05/26 11:28:48;;;;;;;;;2.00;2.00;;;;;26.24;33.93;100172.16;6312626;20;2724210;-57
2022/05/26 11:37:37;;;;;;;;;3.40;2.00;;;;;27.11;33.93;100166.16;6344676;20;2744085;-56
2022/05/26 11:40:13;;;;;;;;;3.00;3.00;;;;;25.66;35.28;100159.81;6309497;20;2734701;-53
2022/05/26 11:42:54;;;;;;;;;3.00;3.00;;;;;25.06;38.12;100155.75;6341378;20;2733596;-57
2022/05/26 11:45:29;;;;;;;;;3.20;1.80;;;;;26.31;36.39;100158.53;6345933;20;2752306;-55
2022/05/26 11:48:29;;;;;;;;;2.00;2.00;;;;;25.82;37.56;100164.34;6313976;20;2733617;-59
2022/05/26 11:51:38;;;;;;;;;2.00;2.00;;;;;26.43;34.51;100162.53;6341882;20;2737777;-55
2022/05/26 11:54:10;;;;;;;;;2.00;2.00;;;;;27.17;34.38;100156.31;6310449;20;2722144;-57
2022/05/26 11:56:45;;;;;;;;;2.00;2.00;;;;;26.27;36.90;100152.50;6343347;20;2725254;-55
2022/05/26 11:59:42;;;;;;;;;3.00;3.00;;;;;25.68;36.91;100162.38;6342380;20;2746176;-57
2022/05/26 12:02:28;;;;;;;;;3.00;3.00;;;;;26.31;37.21;100153.00;6311296;20;2729450;-59
2022/05/26 12:05:29;;;;;;;;;3.00;3.00;;;;;26.92;35.83;100153.81;6343670;20;2727382;-59
2022/05/26 12:08:20;;;;;;;;;2.20;2.20;;;;;26.75;35.37;100145.91;6346313;20;2729509;-53
2022/05/26 12:11:09;;;;;;;;;3.00;3.00;;;;;26.45;35.12;100140.31;6340742;20;2739874;-59
2022/05/26 12:13:41;;;;;;;;;1.00;1.00;;;;;26.76;35.21;100137.47;6312713;20;2733632;-59
2022/05/26 12:16:18;;;;;;;;;2.80;2.80;;;;;26.62;34.66;100141.03;6343136;20;2729497;-59
2022/05/26 12:19:08;;;;;;;;;3.00;3.00;;;;;27.16;35.34;100127.00;6344469;20;2735690;-58
2022/05/26 12:21:48;;;;;;;;;1.60;1.60;;;;;26.47;36.19;100128.06;6341626;20;2739888;-59
2022/05/26 12:24:34;;;;;;;;;3.00;1.60;;;;;26.92;34.56;100125.41;6313543;20;2722223;-58
2022/05/26 12:27:04;;;;;;;;;2.00;2.00;;;;;26.45;33.92;100130.16;6342940;20;2738815;-58
2022/05/26 12:30:03;;;;;;;;;1.00;1.00;;;;;26.77;34.87;100114.38;6344038;20;2733711;-56
2022/05/26 12:32:37;;;;;;;;;4.00;2.40;;;;;26.27;34.41;100115.88;6343448;20;2740879;-54
2022/05/26 12:35:35;;;;;;;;;2.00;2.00;;;;;27.11;35.35;100107.41;6341390;20;2738841;-52
2022/05/26 12:38:36;;;;;;;;;2.00;2.00;;;;;26.95;35.09;100088.34;6312131;20;2750241;-62
2022/05/26 12:41:43;;;;;;;;;2.00;2.00;;;;;27.07;35.29;100101.44;6310046;20;2748293;-62
2022/05/26 12:45:25;;;;;;;;;2.00;2.00;;;;;27.44;35.56;100107.88;6311098;20;2755484;-61
2022/05/26 12:48:32;;;;;;;;;2.40;2.40;;;;;27.29;34.43;100105.16;6310826;20;2731482;-62